createdAt,value
2022-12-14T00:00:55.392Z,88.45
2022-12-14T00:03:29.257Z,75.20
2022-12-14T00:06:15.129Z,85.82
2022-12-14T00:08:49.815Z,93.28
2022-12-14T00:11:24.871Z,71.35
2022-12-14T00:14:00.222Z,86.95
2022-12-14T00:16:34.281Z,82.40
2022-12-14T00:19:06.269Z,84.72
2022-12-14T00:21:38.287Z,89.50
2022-12-14T00:24:10.573Z,68.88
2022-12-14T00:26:42.530Z,72.07
2022-12-14T00:29:14.543Z,80.53
2022-12-14T00:31:48.839Z,75.90
2022-12-14T00:34:21.120Z,69.75
2022-12-14T00:36:53.155Z,79.75
2022-12-14T00:39:25.124Z,76.90
2022-12-14T00:41:57.357Z,68.68
2022-12-14T00:44:29.267Z,81.47
2022-12-14T00:47:01.203Z,74.25
2022-12-14T00:49:33.159Z,77.65
2022-12-14T00:52:05.379Z,80.28
2022-12-14T00:54:37.401Z,81.28
2022-12-14T00:57:10.424Z,69.28
2022-12-14T00:59:42.445Z,69.25
2022-12-14T01:02:14.506Z,74.10
2022-12-14T01:04:46.626Z,79.57
2022-12-14T01:07:18.583Z,77.07
2022-12-14T01:09:50.614Z,81.10
2022-12-14T01:12:22.586Z,76.90
2022-12-14T01:14:54.633Z,76.55
2022-12-14T01:17:26.600Z,79.10
2022-12-14T01:19:58.680Z,74.45
2022-12-14T01:22:30.658Z,75.82
2022-12-14T01:25:03.425Z,73.72
2022-12-14T01:27:35.588Z,79.65
2022-12-14T01:30:08.237Z,60.00
2022-12-14T01:32:40.185Z,83.03
2022-12-14T01:35:12.191Z,73.22
2022-12-14T01:37:44.178Z,70.72
2022-12-14T01:40:17.041Z,68.10
2022-12-14T01:42:49.038Z,73.97
2022-12-14T01:45:23.262Z,68.10
2022-12-14T01:47:58.908Z,78.95
2022-12-14T01:50:35.831Z,75.65
2022-12-14T01:53:17.907Z,74.82
2022-12-14T01:55:55.217Z,65.10
2022-12-14T01:58:28.998Z,64.55
2022-12-14T02:01:02.804Z,79.53
2022-12-14T02:03:40.402Z,76.07
2022-12-14T02:06:27.231Z,68.50
2022-12-14T02:08:59.206Z,71.40
2022-12-14T02:11:56.192Z,71.65
2022-12-14T02:14:28.445Z,64.70
2022-12-14T02:17:00.987Z,69.63
2022-12-14T02:19:33.328Z,66.05
2022-12-14T02:22:52.105Z,68.68
2022-12-14T02:25:55.220Z,65.90
2022-12-14T02:29:10.242Z,65.20
2022-12-14T02:31:54.113Z,68.85
2022-12-14T02:35:08.860Z,57.05
2022-12-14T02:38:27.761Z,68.25
2022-12-14T02:42:00.558Z,73.68
2022-12-14T02:45:45.559Z,62.80
2022-12-14T02:49:01.707Z,62.67
2022-12-14T02:52:04.798Z,61.92
2022-12-14T02:54:49.366Z,64.22
2022-12-14T02:58:01.910Z,75.10
2022-12-14T03:00:37.107Z,69.63
2022-12-14T03:03:09.667Z,54.17
2022-12-14T03:05:41.715Z,63.17
2022-12-14T03:08:16.979Z,63.30
2022-12-14T03:10:55.409Z,62.50
2022-12-14T03:13:38.383Z,59.75
2022-12-14T03:16:32.610Z,64.97
2022-12-14T03:19:24.927Z,56.33
2022-12-14T03:22:03.611Z,75.97
2022-12-14T03:24:44.105Z,60.63
2022-12-14T03:27:31.390Z,65.18
2022-12-14T03:30:11.762Z,63.15
2022-12-14T03:32:50.923Z,57.30
2022-12-14T03:35:33.578Z,67.90
2022-12-14T03:38:21.405Z,53.85
2022-12-14T03:41:07.073Z,57.25
2022-12-14T03:44:18.222Z,56.97
2022-12-14T03:47:04.380Z,56.75
2022-12-14T03:50:02.135Z,60.88
2022-12-14T03:52:45.813Z,59.35
2022-12-14T03:55:49.490Z,52.40
2022-12-14T03:58:57.153Z,61.22
2022-12-14T04:02:08.482Z,57.78
2022-12-14T04:04:51.166Z,56.65
2022-12-14T04:07:44.294Z,51.08
2022-12-14T04:10:45.113Z,58.85
2022-12-14T04:13:49.138Z,52.45
2022-12-14T04:16:45.900Z,60.40
2022-12-14T04:19:27.743Z,55.17
2022-12-14T04:22:06.619Z,56.25
2022-12-14T04:25:22.955Z,56.90
2022-12-14T04:28:43.364Z,51.97
2022-12-14T04:31:20.441Z,58.60
2022-12-14T04:34:02.444Z,50.85
2022-12-14T04:37:07.799Z,57.22
2022-12-14T04:39:51.317Z,56.28
2022-12-14T04:42:32.447Z,51.55
2022-12-14T04:45:12.485Z,50.88
2022-12-14T04:48:08.180Z,59.30
2022-12-14T04:50:52.612Z,45.25
2022-12-14T04:53:29.512Z,51.20
2022-12-14T04:56:13.087Z,57.10
2022-12-14T04:58:45.164Z,54.38
2022-12-14T05:01:35.658Z,54.55
2022-12-14T05:04:56.741Z,51.35
2022-12-14T05:08:09.857Z,58.40
2022-12-14T05:10:48.803Z,52.03
2022-12-14T05:13:28.642Z,61.83
2022-12-14T05:18:35.580Z,48.53
2022-12-14T05:21:09.796Z,57.50
2022-12-14T05:23:41.753Z,53.35
2022-12-14T05:26:13.667Z,52.25
2022-12-14T05:28:50.243Z,55.63
2022-12-14T05:31:23.467Z,56.22
2022-12-14T05:33:55.433Z,52.22
2022-12-14T05:36:27.489Z,50.08
2022-12-14T05:38:59.456Z,50.88
2022-12-14T05:41:31.380Z,50.20
2022-12-14T05:44:03.399Z,44.33
2022-12-14T05:46:35.328Z,55.50
2022-12-14T05:49:07.368Z,56.83
2022-12-14T05:51:39.453Z,52.67
2022-12-14T05:54:11.448Z,55.08
2022-12-14T05:56:43.464Z,53.33
2022-12-14T05:59:17.391Z,50.30
2022-12-14T06:01:50.709Z,47.08
2022-12-14T06:04:22.892Z,55.40
2022-12-14T06:06:55.034Z,65.50
2022-12-14T06:09:27.062Z,51.15
2022-12-14T06:11:58.987Z,51.22
2022-12-14T06:14:30.963Z,46.35
2022-12-14T06:17:02.989Z,43.72
2022-12-14T06:19:34.931Z,47.30
2022-12-14T06:22:06.845Z,52.40
2022-12-14T06:24:38.776Z,47.45
2022-12-14T06:27:10.772Z,51.42
2022-12-14T06:29:42.830Z,45.63
2022-12-14T06:32:14.816Z,50.85
2022-12-14T06:34:47.049Z,56.33
2022-12-14T06:37:19.356Z,43.80
2022-12-14T06:39:54.417Z,49.95
2022-12-14T06:42:27.445Z,51.22
2022-12-14T06:44:59.419Z,57.40
2022-12-14T06:47:31.389Z,46.42
2022-12-14T06:50:03.582Z,46.42
2022-12-14T06:52:37.526Z,39.50
2022-12-14T06:55:09.647Z,47.13
2022-12-14T06:57:41.999Z,51.33
2022-12-14T07:00:14.599Z,46.67
2022-12-14T07:02:47.163Z,46.20
2022-12-14T07:05:19.354Z,51.38
2022-12-14T07:07:51.254Z,42.95
2022-12-14T07:10:23.207Z,46.58
2022-12-14T07:12:55.227Z,52.83
2022-12-14T07:15:28.422Z,45.40
2022-12-14T07:18:00.465Z,46.92
2022-12-14T07:20:32.368Z,46.45
2022-12-14T07:23:04.331Z,51.58
2022-12-14T07:25:36.350Z,49.28
2022-12-14T07:28:08.337Z,51.67
2022-12-14T07:30:40.247Z,52.13
2022-12-14T07:33:12.176Z,50.35
2022-12-14T07:35:44.083Z,51.30
2022-12-14T07:38:17.136Z,56.45
2022-12-14T07:40:49.246Z,51.45
2022-12-14T07:43:21.527Z,49.83
2022-12-14T07:45:53.760Z,48.42
2022-12-14T07:48:25.964Z,50.03
2022-12-14T07:51:11.857Z,48.00
2022-12-14T07:53:44.299Z,48.58
2022-12-14T07:56:27.148Z,41.50
2022-12-14T07:59:01.509Z,46.50
2022-12-14T08:01:37.194Z,42.83
2022-12-14T08:04:13.409Z,49.17
2022-12-14T08:06:47.061Z,49.33
2022-12-14T08:09:20.299Z,48.13
2022-12-14T08:11:52.335Z,50.28
2022-12-14T08:14:24.363Z,62.05
2022-12-14T08:16:56.468Z,53.97
2022-12-14T08:19:28.514Z,54.25
2022-12-14T08:22:00.611Z,48.25
2022-12-14T08:24:32.798Z,56.05
2022-12-14T08:27:04.978Z,43.70
2022-12-14T08:29:36.993Z,47.58
2022-12-14T08:32:09.172Z,46.42
2022-12-14T08:34:41.231Z,57.40
2022-12-14T08:37:13.229Z,63.85
2022-12-14T08:39:45.170Z,64.18
2022-12-14T08:42:21.601Z,49.50
2022-12-14T08:44:53.599Z,47.40
2022-12-14T08:47:25.639Z,51.20
2022-12-14T08:49:57.779Z,49.60
2022-12-14T08:52:32.783Z,53.47
2022-12-14T08:55:06.718Z,44.17
2022-12-14T08:57:38.744Z,45.72
2022-12-14T09:00:11.787Z,47.45
2022-12-14T09:02:44.005Z,42.28
2022-12-14T09:05:16.142Z,44.05
2022-12-14T09:07:48.154Z,49.53
2022-12-14T09:10:20.211Z,54.78
2022-12-14T09:12:52.191Z,45.83
2022-12-14T09:15:24.112Z,41.78
2022-12-14T09:17:56.092Z,53.05
2022-12-14T09:20:28.094Z,54.70
2022-12-14T09:23:00.111Z,49.60
2022-12-14T09:25:32.063Z,44.72
2022-12-14T09:28:04.037Z,57.50
2022-12-14T09:30:35.993Z,47.38
2022-12-14T09:33:08.116Z,42.53
2022-12-14T09:35:40.090Z,50.90
2022-12-14T09:38:12.128Z,50.90
2022-12-14T09:40:56.029Z,49.78
2022-12-14T09:43:43.011Z,43.75
2022-12-14T09:47:00.280Z,47.83
2022-12-14T09:49:58.588Z,35.97
2022-12-14T09:52:40.359Z,48.28
2022-12-14T09:55:45.456Z,40.40
2022-12-14T09:58:27.974Z,51.42
2022-12-14T10:01:24.301Z,45.83
2022-12-14T10:04:14.711Z,45.60
2022-12-14T10:07:11.827Z,40.42
2022-12-14T10:10:06.103Z,37.50
2022-12-14T10:12:59.864Z,48.40
2022-12-14T10:15:37.133Z,40.97
2022-12-14T10:18:59.379Z,49.75
2022-12-14T10:22:16.516Z,38.03
2022-12-14T10:24:58.615Z,48.20
2022-12-14T10:27:53.988Z,42.15
2022-12-14T10:30:25.760Z,38.53
2022-12-14T10:33:10.959Z,36.97
2022-12-14T10:35:55.458Z,35.88
2022-12-14T10:38:49.141Z,41.38
2022-12-14T10:41:55.115Z,45.80
2022-12-14T10:44:40.471Z,41.45
2022-12-14T10:47:24.594Z,46.80
2022-12-14T10:50:27.516Z,42.55
2022-12-14T10:53:05.696Z,44.75
2022-12-14T10:55:41.791Z,33.60
2022-12-14T10:58:13.804Z,44.97
2022-12-14T11:00:45.843Z,46.65
2022-12-14T11:03:17.932Z,37.00
2022-12-14T11:06:12.901Z,31.30
2022-12-14T11:08:49.430Z,34.60
2022-12-14T11:11:25.251Z,44.83
2022-12-14T11:14:09.076Z,38.17
2022-12-14T11:16:41.928Z,39.15
2022-12-14T11:19:24.363Z,49.63
2022-12-14T11:22:22.186Z,45.03
2022-12-14T11:24:54.809Z,48.05
2022-12-14T11:27:26.875Z,41.38
2022-12-14T11:29:59.079Z,38.83
2022-12-14T11:32:31.201Z,45.80
2022-12-14T11:35:03.425Z,42.88
2022-12-14T11:37:35.378Z,41.20
2022-12-14T11:40:23.084Z,36.65
2022-12-14T11:43:03.714Z,36.78
2022-12-14T11:45:37.351Z,36.97
2022-12-14T11:48:15.309Z,39.45
2022-12-14T11:50:49.476Z,38.28
2022-12-14T11:53:23.032Z,35.55
2022-12-14T11:55:57.692Z,36.60
2022-12-14T11:58:34.396Z,30.50
2022-12-14T12:01:14.956Z,39.45
2022-12-14T12:04:01.284Z,34.35
2022-12-14T12:06:33.385Z,40.00
2022-12-14T12:09:31.125Z,35.30
2022-12-14T12:12:03.910Z,34.50
2022-12-14T12:14:38.845Z,35.00
2022-12-14T12:17:39.103Z,36.90
2022-12-14T12:23:11.788Z,37.93
2022-12-14T12:25:47.659Z,28.83
2022-12-14T12:28:30.345Z,31.52
2022-12-14T12:31:15.108Z,34.25
2022-12-14T12:33:56.827Z,38.15
2022-12-14T12:36:32.409Z,31.73
2022-12-14T12:39:14.907Z,34.38
2022-12-14T12:42:11.966Z,38.70
2022-12-14T12:44:57.995Z,34.55
2022-12-14T12:47:46.089Z,30.23
2022-12-14T12:50:32.478Z,43.30
2022-12-14T12:53:47.977Z,41.53
2022-12-14T12:56:48.286Z,47.42
2022-12-14T12:59:31.434Z,40.22
2022-12-14T13:02:35.435Z,41.40
2022-12-14T13:05:45.583Z,43.30
2022-12-14T13:08:24.159Z,39.70
2022-12-14T13:11:25.054Z,29.85
2022-12-14T13:14:00.647Z,36.65
2022-12-14T13:16:37.284Z,37.03
2022-12-14T13:19:51.728Z,38.72
2022-12-14T13:22:33.920Z,34.38
2022-12-14T13:25:52.702Z,39.38
2022-12-14T13:28:52.231Z,31.73
2022-12-14T13:32:17.833Z,32.92
2022-12-14T13:35:28.681Z,33.97
2022-12-14T13:38:23.480Z,29.35
2022-12-14T13:41:39.224Z,32.40
2022-12-14T13:44:45.028Z,32.85
2022-12-14T13:47:22.561Z,35.80
2022-12-14T13:52:59.745Z,31.85
2022-12-14T13:55:36.419Z,34.13
2022-12-14T13:58:44.388Z,31.63
2022-12-14T14:01:48.512Z,38.65
2022-12-14T14:04:29.982Z,40.55
2022-12-14T14:07:23.621Z,33.28
2022-12-14T14:09:55.500Z,32.05
2022-12-14T14:12:41.717Z,37.00
2022-12-14T14:15:38.110Z,35.75
2022-12-14T14:18:21.848Z,36.22
2022-12-14T14:21:14.072Z,37.35
2022-12-14T14:24:06.547Z,39.17
2022-12-14T14:26:44.621Z,37.15
2022-12-14T14:29:23.181Z,47.17
2022-12-14T14:32:00.843Z,41.97
2022-12-14T14:34:44.901Z,35.08
2022-12-14T14:37:26.541Z,40.85
2022-12-14T14:40:07.597Z,40.97
2022-12-14T14:43:19.684Z,31.55
2022-12-14T14:45:55.661Z,37.20
2022-12-14T14:48:37.748Z,37.67
2022-12-14T14:51:27.113Z,35.80
2022-12-14T14:54:56.116Z,39.47
2022-12-14T14:57:59.556Z,42.92
2022-12-14T15:00:41.893Z,33.05
2022-12-14T15:03:15.219Z,38.90
2022-12-14T15:05:49.755Z,33.90
2022-12-14T15:08:40.401Z,36.47
2022-12-14T15:11:21.845Z,39.08
2022-12-14T15:14:32.737Z,39.88
2022-12-14T15:17:24.186Z,45.22
2022-12-14T15:20:02.524Z,41.88
2022-12-14T15:22:42.535Z,40.47
2022-12-14T15:25:29.731Z,49.20
2022-12-14T15:28:07.661Z,40.83
2022-12-14T15:30:47.894Z,45.40
2022-12-14T15:36:08.441Z,42.22
2022-12-14T15:38:40.369Z,45.95
2022-12-14T15:41:17.461Z,38.65
2022-12-14T15:43:55.112Z,44.65
2022-12-14T15:46:33.951Z,44.30
2022-12-14T15:49:21.703Z,38.20
2022-12-14T15:51:55.211Z,51.20
2022-12-14T15:54:28.186Z,47.92
2022-12-14T15:57:00.588Z,41.05
2022-12-14T15:59:36.224Z,38.70
2022-12-14T16:02:33.283Z,55.50
2022-12-14T16:05:06.562Z,48.00
2022-12-14T16:07:44.429Z,41.58
2022-12-14T16:10:26.080Z,44.55
2022-12-14T16:13:06.456Z,41.15
2022-12-14T16:15:38.635Z,50.03
2022-12-14T16:18:14.669Z,40.63
2022-12-14T16:20:58.680Z,38.63
2022-12-14T16:23:41.750Z,40.25
2022-12-14T16:26:27.212Z,45.10
2022-12-14T16:29:20.154Z,40.75
2022-12-14T16:32:04.843Z,38.85
2022-12-14T16:34:36.900Z,48.72
2022-12-14T16:37:33.870Z,48.17
2022-12-14T16:40:10.651Z,54.55
2022-12-14T16:42:49.751Z,55.63
2022-12-14T16:45:42.986Z,38.72
2022-12-14T16:48:19.928Z,46.40
2022-12-14T16:50:58.056Z,47.65
2022-12-14T16:53:33.439Z,43.30
2022-12-14T16:56:19.492Z,51.72
2022-12-14T16:59:07.006Z,81.93
2022-12-14T17:01:45.356Z,62.38
2022-12-14T17:04:19.425Z,65.18
2022-12-14T17:06:56.421Z,56.92
2022-12-14T17:09:30.883Z,52.58
2022-12-14T17:12:14.429Z,57.88
2022-12-14T17:14:49.941Z,48.60
2022-12-14T17:17:33.306Z,45.85
2022-12-14T17:20:13.634Z,56.40
2022-12-14T17:22:49.341Z,59.03
2022-12-14T17:25:21.836Z,56.17
2022-12-14T17:27:54.018Z,55.00
2022-12-14T17:30:26.830Z,53.80
2022-12-14T17:32:58.955Z,51.95
2022-12-14T17:35:34.069Z,46.58
2022-12-14T17:38:16.274Z,52.63
2022-12-14T17:40:53.853Z,57.13
2022-12-14T17:43:28.130Z,60.63
2022-12-14T17:46:03.446Z,57.15
2022-12-14T17:48:37.367Z,57.17
2022-12-14T17:51:27.514Z,58.22
2022-12-14T17:56:31.557Z,53.83
2022-12-14T17:59:03.492Z,60.80
2022-12-14T18:01:36.152Z,61.33
2022-12-14T18:04:08.271Z,52.38
2022-12-14T18:06:40.448Z,57.65
2022-12-14T18:09:13.073Z,51.28
2022-12-14T18:12:06.621Z,61.75
2022-12-14T18:14:36.969Z,71.18
2022-12-14T18:17:11.631Z,60.58
2022-12-14T18:19:43.792Z,59.63
2022-12-14T18:22:16.292Z,67.65
2022-12-14T18:24:49.315Z,67.13
2022-12-14T18:27:21.480Z,64.00
2022-12-14T18:29:53.557Z,70.03
2022-12-14T18:32:25.512Z,60.58
2022-12-14T18:34:57.518Z,56.75
2022-12-14T18:37:32.736Z,60.38
2022-12-14T18:40:05.764Z,66.65
2022-12-14T18:42:37.693Z,60.10
2022-12-14T18:45:29.793Z,57.83
2022-12-14T18:48:02.132Z,60.53
2022-12-14T18:50:37.247Z,67.65
2022-12-14T18:53:18.645Z,62.28
2022-12-14T18:55:50.805Z,59.85
2022-12-14T18:58:28.569Z,60.95
2022-12-14T19:01:01.184Z,71.82
2022-12-14T19:03:33.801Z,60.70
2022-12-14T19:09:04.680Z,63.63
2022-12-14T19:11:40.197Z,60.30
2022-12-14T19:14:12.569Z,67.50
2022-12-14T19:16:44.597Z,66.32
2022-12-14T19:19:19.956Z,73.55
2022-12-14T19:21:54.809Z,72.22
2022-12-14T19:24:26.744Z,72.70
2022-12-14T19:26:58.919Z,68.43
2022-12-14T19:29:30.935Z,70.13
2022-12-14T19:32:05.625Z,68.85
2022-12-14T19:34:38.030Z,71.07
2022-12-14T19:37:10.016Z,72.75
2022-12-14T19:39:41.983Z,56.55
2022-12-14T19:42:14.099Z,56.55
2022-12-14T19:44:46.811Z,70.88
2022-12-14T19:47:21.324Z,60.67
2022-12-14T19:49:53.281Z,63.08
2022-12-14T19:52:25.947Z,63.20
2022-12-14T19:54:57.880Z,59.28
2022-12-14T19:57:29.976Z,66.95
2022-12-14T20:00:02.643Z,69.65
2022-12-14T20:02:35.892Z,63.50
2022-12-14T20:05:08.685Z,72.15
2022-12-14T20:07:43.953Z,68.90
2022-12-14T20:10:16.478Z,62.22
2022-12-14T20:12:48.480Z,70.43
2022-12-14T20:15:20.440Z,68.13
2022-12-14T20:17:52.477Z,72.13
2022-12-14T20:20:24.446Z,69.38
2022-12-14T20:22:56.439Z,62.55
2022-12-14T20:25:28.499Z,65.43
2022-12-14T20:28:00.461Z,61.55
2022-12-14T20:30:33.893Z,63.70
2022-12-14T20:33:06.270Z,64.88
2022-12-14T20:35:38.427Z,66.32
2022-12-14T20:38:10.713Z,61.03
2022-12-14T20:40:42.681Z,61.80
2022-12-14T20:43:14.617Z,58.38
2022-12-14T20:45:46.777Z,65.28
2022-12-14T20:48:18.799Z,64.70
2022-12-14T20:50:55.000Z,54.08
2022-12-14T20:53:31.210Z,62.88
2022-12-14T20:56:04.965Z,56.47
2022-12-14T20:58:36.949Z,52.78
2022-12-14T21:01:13.411Z,57.15
2022-12-14T21:03:47.292Z,57.88
2022-12-14T21:06:22.692Z,52.40
2022-12-14T21:09:10.219Z,49.05
2022-12-14T21:12:07.686Z,61.05
2022-12-14T21:14:42.713Z,54.65
2022-12-14T21:17:15.125Z,57.97
2022-12-14T21:19:47.272Z,66.80
2022-12-14T21:22:26.112Z,49.67
2022-12-14T21:25:06.629Z,46.92
2022-12-14T21:27:39.854Z,52.75
2022-12-14T21:30:12.740Z,55.42
2022-12-14T21:32:44.724Z,60.08
2022-12-14T21:35:18.491Z,55.97
2022-12-14T21:37:50.418Z,57.83
2022-12-14T21:40:40.805Z,55.40
2022-12-14T21:43:12.898Z,63.22
2022-12-14T21:45:46.200Z,57.10
2022-12-14T21:48:18.310Z,56.25
2022-12-14T21:50:50.277Z,60.85
2022-12-14T21:53:22.275Z,50.72
2022-12-14T21:56:14.270Z,56.47
2022-12-14T21:58:54.104Z,48.30
2022-12-14T22:03:58.212Z,45.22
2022-12-14T22:06:30.766Z,45.50
2022-12-14T22:09:04.354Z,56.35
2022-12-14T22:11:36.382Z,48.20
2022-12-14T22:14:12.996Z,43.05
2022-12-14T22:16:45.300Z,43.38
2022-12-14T22:19:23.660Z,50.42
2022-12-14T22:21:55.737Z,49.10
2022-12-14T22:24:29.122Z,40.22
2022-12-14T22:27:01.151Z,50.38
2022-12-14T22:29:33.181Z,46.70
2022-12-14T22:32:06.261Z,42.95
2022-12-14T22:34:38.274Z,42.33
2022-12-14T22:37:11.514Z,45.88
2022-12-14T22:39:43.585Z,50.47
2022-12-14T22:42:16.460Z,48.40
2022-12-14T22:44:49.178Z,58.55
2022-12-14T22:47:21.154Z,50.35
2022-12-14T22:49:53.120Z,51.10
2022-12-14T22:52:25.257Z,51.92
2022-12-14T22:54:57.596Z,50.83
2022-12-14T22:57:30.727Z,50.55
2022-12-14T23:00:14.529Z,44.97
2022-12-14T23:02:48.634Z,49.15
2022-12-14T23:05:20.943Z,49.75
2022-12-14T23:07:53.505Z,45.47
2022-12-14T23:10:43.955Z,48.05
2022-12-14T23:13:34.299Z,40.83
2022-12-14T23:16:25.434Z,41.22
2022-12-14T23:19:15.713Z,49.42
2022-12-14T23:22:06.337Z,42.40
2022-12-14T23:24:57.244Z,38.67
2022-12-14T23:27:47.821Z,46.53
2022-12-14T23:30:38.315Z,56.05
2022-12-14T23:33:29.253Z,45.08
2022-12-14T23:36:20.151Z,42.97
2022-12-14T23:39:10.682Z,48.58
2022-12-14T23:42:01.730Z,47.38
2022-12-14T23:44:52.228Z,43.38
2022-12-14T23:47:42.514Z,46.53
2022-12-14T23:50:33.240Z,46.60
2022-12-14T23:53:25.205Z,50.28
2022-12-14T23:56:15.738Z,46.83
2022-12-14T23:59:10.293Z,51.85
